Time;durP1;ratioP1;P1;durP2;ratioP2;P2;SDS_P1;SDS_P2;PMS_P1;PMS_P2;Temp;Humidity;BMP_temperature;BMP_pressure;BME280_temperature;BME280_humidity;BME280_pressure;Samples;Min_cycle;Max_cycle;Signal;HPM_P1;HPM_P2
2022/09/23 00:00:59;;;;;;;0.50;0.40;;;12.30;99.90;;;;;;5051749;28;20583;-76
2022/09/23 00:03:27;;;;;;;0.50;0.40;;;12.30;99.90;;;;;;5051708;28;20210;-76
2022/09/23 00:05:58;;;;;;;0.50;0.40;;;12.30;99.90;;;;;;5051928;28;20200;-76
2022/09/23 00:08:25;;;;;;;2.38;0.93;;;12.30;99.90;;;;;;5052081;28;20183;-76
2022/09/23 00:10:54;;;;;;;0.50;0.40;;;12.30;99.90;;;;;;5051510;28;20292;-76
2022/09/23 00:13:22;;;;;;;0.50;0.40;;;12.40;99.90;;;;;;5051842;28;20572;-76
2022/09/23 00:15:49;;;;;;;0.50;0.40;;;12.30;99.90;;;;;;5051720;28;20223;-77
2022/09/23 00:18:16;;;;;;;0.50;0.40;;;12.40;99.90;;;;;;5051585;28;20191;-77
2022/09/23 00:20:43;;;;;;;0.50;0.40;;;12.40;99.90;;;;;;5051881;28;20202;-77
2022/09/23 00:23:10;;;;;;;0.50;0.50;;;12.40;99.90;;;;;;5051053;28;20721;-75
2022/09/23 00:25:37;;;;;;;0.57;0.55;;;12.40;99.90;;;;;;5051328;28;20209;-77
2022/09/23 00:28:05;;;;;;;2.55;0.80;;;12.40;99.90;;;;;;5051476;28;20202;-77
2022/09/23 00:30:32;;;;;;;0.50;0.40;;;12.40;99.90;;;;;;5051529;28;20198;-76
2022/09/23 00:32:59;;;;;;;0.50;0.40;;;12.40;99.90;;;;;;5051129;28;20250;-77
2022/09/23 00:35:26;;;;;;;0.50;0.50;;;12.40;99.90;;;;;;5051165;28;20283;-77
2022/09/23 00:37:53;;;;;;;1.02;0.93;;;12.40;99.90;;;;;;5051329;28;20572;-77
2022/09/23 00:40:20;;;;;;;0.50;0.40;;;12.40;99.90;;;;;;5051399;28;20288;-74
2022/09/23 00:42:48;;;;;;;0.70;0.50;;;12.50;99.90;;;;;;5050795;28;20219;-76
2022/09/23 00:45:17;;;;;;;0.50;0.40;;;12.50;99.90;;;;;;5050789;28;20201;-77
2022/09/23 00:47:48;;;;;;;0.50;0.40;;;12.50;99.90;;;;;;5050742;28;20204;-77
2022/09/23 00:50:22;;;;;;;0.50;0.40;;;12.50;99.90;;;;;;5051782;28;20545;-77
2022/09/23 00:52:51;;;;;;;0.98;0.93;;;12.40;99.90;;;;;;5051184;28;20214;-76
2022/09/23 00:55:24;;;;;;;0.50;0.40;;;12.40;99.90;;;;;;5051370;28;20291;-77
2022/09/23 00:57:53;;;;;;;0.50;0.40;;;12.50;99.90;;;;;;5051087;28;20190;-77
2022/09/23 01:00:22;;;;;;;0.50;0.40;;;12.40;99.90;;;;;;5051196;28;20668;-74
2022/09/23 01:02:49;;;;;;;0.50;0.40;;;12.40;99.90;;;;;;5050967;28;20208;-77
2022/09/23 01:05:17;;;;;;;0.50;0.40;;;12.40;99.90;;;;;;5051044;28;20205;-76
2022/09/23 01:07:44;;;;;;;0.50;0.40;;;12.40;99.90;;;;;;5051208;28;20440;-75
2022/09/23 01:10:13;;;;;;;0.50;0.40;;;12.40;99.90;;;;;;5051215;28;20673;-77
2022/09/23 01:13:06;;;;;;;1.15;0.80;;;12.40;99.90;;;;;;5051204;28;20225;-77
2022/09/23 01:15:44;;;;;;;0.50;0.40;;;12.40;99.90;;;;;;5050806;28;20200;-76
2022/09/23 01:18:25;;;;;;;0.50;0.40;;;12.40;99.90;;;;;;5051206;28;20187;-77
2022/09/23 01:21:15;;;;;;;0.50;0.40;;;12.30;99.90;;;;;;5051042;28;20642;-77
2022/09/23 01:24:15;;;;;;;0.50;0.40;;;12.40;99.90;;;;;;5050760;28;20686;-77
2022/09/23 01:26:59;;;;;;;0.50;0.40;;;12.40;99.90;;;;;;5050690;28;20204;-76
2022/09/23 01:29:51;;;;;;;0.50;0.45;;;12.40;99.90;;;;;;5050782;28;20196;-76
2022/09/23 01:32:30;;;;;;;0.50;0.40;;;12.40;99.90;;;;;;5050953;28;20203;-76
2022/09/23 01:35:05;;;;;;;0.50;0.40;;;12.40;99.90;;;;;;5050498;28;20175;-77
2022/09/23 01:37:40;;;;;;;0.60;0.60;;;12.40;99.90;;;;;;5051040;28;20199;-76
2022/09/23 01:40:14;;;;;;;0.60;0.55;;;12.40;99.90;;;;;;5050813;28;20184;-77
2022/09/23 01:42:44;;;;;;;0.50;0.40;;;12.40;99.90;;;;;;5050399;28;20700;-77
2022/09/23 01:45:18;;;;;;;0.50;0.40;;;12.40;99.90;;;;;;5050324;28;20305;-77
2022/09/23 01:47:51;;;;;;;0.70;0.70;;;12.40;99.90;;;;;;5050591;28;20215;-76
2022/09/23 01:53:12;;;;;;;0.90;0.90;;;12.30;99.90;;;;;;5052781;28;20214;-77
2022/09/23 01:55:42;;;;;;;0.50;0.40;;;12.20;99.90;;;;;;5054423;28;20200;-76
2022/09/23 01:58:15;;;;;;;0.60;0.50;;;12.20;99.90;;;;;;5054657;28;20222;-77
2022/09/23 02:00:51;;;;;;;1.05;1.05;;;12.20;99.90;;;;;;5054273;28;20552;-77
2022/09/23 02:03:24;;;;;;;0.50;0.40;;;12.20;99.90;;;;;;5054380;28;20231;-77
2022/09/23 02:05:57;;;;;;;0.50;0.40;;;12.20;99.90;;;;;;5053497;28;20297;-76
2022/09/23 02:08:27;;;;;;;0.50;0.40;;;12.20;99.90;;;;;;5054152;28;20177;-76
2022/09/23 02:10:58;;;;;;;0.50;0.40;;;12.20;99.90;;;;;;5054239;28;20282;-76
2022/09/23 02:13:28;;;;;;;0.50;0.40;;;12.30;99.90;;;;;;5054540;28;20218;-76
2022/09/23 02:16:00;;;;;;;0.50;0.40;;;12.20;99.90;;;;;;5053586;28;20667;-76
2022/09/23 02:18:35;;;;;;;0.50;0.40;;;12.20;99.90;;;;;;5054236;28;20198;-76
2022/09/23 02:21:06;;;;;;;0.50;0.40;;;12.20;99.90;;;;;;5053769;28;20182;-77
2022/09/23 02:23:39;;;;;;;0.50;0.40;;;12.20;99.90;;;;;;5053917;28;20696;-76
2022/09/23 02:26:11;;;;;;;1.80;1.55;;;12.10;99.90;;;;;;5053573;28;20222;-74
2022/09/23 02:28:47;;;;;;;0.50;0.40;;;12.10;99.90;;;;;;5053862;28;20622;-77
2022/09/23 02:31:26;;;;;;;0.50;0.40;;;12.10;99.90;;;;;;5053833;28;20197;-76
2022/09/23 02:33:57;;;;;;;0.50;0.40;;;12.10;99.90;;;;;;5053985;28;20699;-75
2022/09/23 02:36:30;;;;;;;0.50;0.40;;;12.10;99.90;;;;;;5053732;28;20658;-76
2022/09/23 02:39:01;;;;;;;0.50;0.40;;;12.20;99.90;;;;;;5053566;28;20193;-76
2022/09/23 02:41:32;;;;;;;0.50;0.40;;;12.10;99.90;;;;;;5053426;28;20194;-76
2022/09/23 02:44:05;;;;;;;0.50;0.40;;;12.10;99.90;;;;;;5053312;28;21022;-77
2022/09/23 02:46:32;;;;;;;0.50;0.40;;;12.10;99.90;;;;;;5053714;28;20191;-75
2022/09/23 02:49:04;;;;;;;0.50;0.40;;;12.00;99.90;;;;;;5053068;28;20192;-77
2022/09/23 02:51:37;;;;;;;0.50;0.40;;;12.10;99.90;;;;;;5053511;28;20195;-77
2022/09/23 02:54:06;;;;;;;1.27;1.17;;;12.00;99.90;;;;;;5053151;28;20212;-76
2022/09/23 02:56:34;;;;;;;0.50;0.40;;;12.00;99.90;;;;;;5053076;28;20203;-77
2022/09/23 02:59:02;;;;;;;0.50;0.40;;;12.10;99.90;;;;;;5053173;28;20209;-78
2022/09/23 03:01:38;;;;;;;0.60;0.52;;;12.10;99.90;;;;;;5053090;28;20664;-76
2022/09/23 03:04:15;;;;;;;0.50;0.40;;;12.10;99.90;;;;;;5052001;28;20221;-77
2022/09/23 03:06:53;;;;;;;0.50;0.45;;;12.00;99.90;;;;;;5052916;28;20182;-77
2022/09/23 03:09:25;;;;;;;0.50;0.40;;;12.10;99.90;;;;;;5053279;28;20201;-74
2022/09/23 03:11:59;;;;;;;0.50;0.40;;;12.10;99.90;;;;;;5052964;28;20225;-77
2022/09/23 03:14:33;;;;;;;0.50;0.40;;;12.00;99.90;;;;;;5052981;28;20278;-76
2022/09/23 03:17:05;;;;;;;3.10;0.73;;;12.00;99.90;;;;;;5052791;28;20217;-76
2022/09/23 03:19:36;;;;;;;0.50;0.40;;;12.10;99.90;;;;;;5053186;28;20193;-77
2022/09/23 03:22:08;;;;;;;0.50;0.40;;;12.00;99.90;;;;;;5052822;28;20198;-76
2022/09/23 03:24:38;;;;;;;0.85;0.50;;;11.90;99.90;;;;;;5052079;28;20263;-76
2022/09/23 03:27:12;;;;;;;0.50;0.40;;;11.90;99.90;;;;;;5052715;28;20297;-76
2022/09/23 03:29:41;;;;;;;0.50;0.40;;;12.00;99.90;;;;;;5052531;28;20202;-76
2022/09/23 03:32:08;;;;;;;0.50;0.40;;;12.00;99.90;;;;;;5052650;28;20703;-75
2022/09/23 03:34:38;;;;;;;0.60;0.55;;;12.00;99.90;;;;;;5052633;28;20591;-77
2022/09/23 03:37:14;;;;;;;0.50;0.40;;;12.00;99.90;;;;;;5052393;28;20687;-77
2022/09/23 03:39:44;;;;;;;0.50;0.40;;;11.90;99.90;;;;;;5052688;28;20198;-77
2022/09/23 03:42:15;;;;;;;0.50;0.40;;;11.80;99.90;;;;;;5052378;28;20194;-76
2022/09/23 03:44:44;;;;;;;0.50;0.50;;;11.80;99.90;;;;;;5051947;28;20761;-77
2022/09/23 03:47:13;;;;;;;0.50;0.40;;;11.90;99.90;;;;;;5051585;28;20445;-76
2022/09/23 03:49:44;;;;;;;0.50;0.40;;;11.90;99.90;;;;;;5052916;28;20197;-75
2022/09/23 03:52:11;;;;;;;4.55;2.15;;;11.80;99.90;;;;;;5052653;28;20186;-76
2022/09/23 03:54:38;;;;;;;0.50;0.40;;;11.70;99.90;;;;;;5051772;28;20680;-76
2022/09/23 03:57:05;;;;;;;0.50;0.40;;;11.70;99.90;;;;;;5052115;28;20190;-77
2022/09/23 03:59:32;;;;;;;0.50;0.40;;;11.80;99.90;;;;;;5052068;28;20566;-76
2022/09/23 04:01:59;;;;;;;0.60;0.40;;;11.70;99.90;;;;;;5052236;28;20198;-77
2022/09/23 04:04:27;;;;;;;0.50;0.40;;;11.80;99.90;;;;;;5052035;28;20232;-76
2022/09/23 04:06:55;;;;;;;0.50;0.40;;;11.80;99.90;;;;;;5051816;28;20197;-76
2022/09/23 04:09:22;;;;;;;0.50;0.40;;;11.70;99.90;;;;;;5051763;28;20201;-76
2022/09/23 04:11:50;;;;;;;0.60;0.57;;;11.70;99.90;;;;;;5051568;28;20200;-76
2022/09/23 04:14:17;;;;;;;0.50;0.40;;;11.60;99.90;;;;;;5051804;28;20217;-76
2022/09/23 04:16:44;;;;;;;0.50;0.40;;;11.60;99.90;;;;;;5050381;28;20199;-76
2022/09/23 04:19:12;;;;;;;0.50;0.40;;;11.60;99.90;;;;;;5051698;28;20205;-77
2022/09/23 04:21:40;;;;;;;0.50;0.40;;;11.50;99.90;;;;;;5052027;28;20685;-77
2022/09/23 04:24:09;;;;;;;0.50;0.40;;;11.40;99.90;;;;;;5051086;28;20225;-77
2022/09/23 04:26:36;;;;;;;0.70;0.70;;;11.40;99.90;;;;;;5051532;28;20202;-76
2022/09/23 04:29:04;;;;;;;0.50;0.40;;;11.40;99.90;;;;;;5051411;28;20201;-75
2022/09/23 04:31:31;;;;;;;0.50;0.40;;;11.40;99.90;;;;;;5051138;28;20193;-76
2022/09/23 04:33:58;;;;;;;2.75;2.65;;;11.40;99.90;;;;;;5051247;28;20732;-76
2022/09/23 04:36:25;;;;;;;0.50;0.50;;;11.40;99.90;;;;;;5051451;28;20194;-76
2022/09/23 04:38:52;;;;;;;0.50;0.40;;;11.40;99.90;;;;;;5051404;28;20701;-76
2022/09/23 04:41:20;;;;;;;0.50;0.40;;;11.40;99.90;;;;;;5051208;28;20200;-76
2022/09/23 04:43:48;;;;;;;0.50;0.40;;;11.40;99.90;;;;;;5051243;28;20221;-76
2022/09/23 04:46:16;;;;;;;0.95;0.93;;;11.40;99.90;;;;;;5050976;28;20634;-76
2022/09/23 04:48:43;;;;;;;0.50;0.40;;;11.40;99.90;;;;;;5051497;28;20204;-77
2022/09/23 04:51:12;;;;;;;0.50;0.40;;;11.40;99.90;;;;;;5051465;28;20204;-76
2022/09/23 04:53:41;;;;;;;4.40;1.88;;;11.40;99.90;;;;;;5051021;28;20211;-77
2022/09/23 04:56:10;;;;;;;0.50;0.40;;;11.40;99.90;;;;;;5051184;28;20585;-76
2022/09/23 04:58:39;;;;;;;0.50;0.40;;;11.30;99.90;;;;;;5051494;28;20198;-77
2022/09/23 05:01:14;;;;;;;1.67;1.58;;;11.30;99.90;;;;;;5051202;28;20223;-77
2022/09/23 05:03:41;;;;;;;0.50;0.40;;;11.30;99.90;;;;;;5052953;28;20225;-79
2022/09/23 05:06:09;;;;;;;0.50;0.40;;;11.30;99.90;;;;;;5051898;28;20229;-80
2022/09/23 05:08:36;;;;;;;0.50;0.40;;;11.30;99.90;;;;;;5052094;28;20568;-79
2022/09/23 05:11:04;;;;;;;0.80;0.77;;;11.30;99.90;;;;;;5052263;28;20226;-77
2022/09/23 05:13:32;;;;;;;0.50;0.40;;;11.30;99.90;;;;;;5051830;28;20218;-78
2022/09/23 05:16:02;;;;;;;0.50;0.40;;;11.30;99.90;;;;;;5051270;28;20205;-80
2022/09/23 05:18:31;;;;;;;0.50;0.40;;;11.20;99.90;;;;;;5052051;28;20641;-79
2022/09/23 05:20:58;;;;;;;0.50;0.40;;;11.30;99.90;;;;;;5051341;28;20369;-78
2022/09/23 05:23:26;;;;;;;0.50;0.50;;;11.20;99.90;;;;;;5050640;28;20737;-78
2022/09/23 05:25:57;;;;;;;0.50;0.40;;;11.20;99.90;;;;;;5051030;28;20257;-78
2022/09/23 05:28:25;;;;;;;0.50;0.40;;;11.30;99.90;;;;;;5053919;28;20269;-78
2022/09/23 05:30:52;;;;;;;0.50;0.50;;;11.30;99.90;;;;;;5054986;28;20340;-78
2022/09/23 05:33:20;;;;;;;0.50;0.40;;;11.20;99.90;;;;;;5054648;28;20221;-78
2022/09/23 05:35:47;;;;;;;1.35;1.25;;;11.30;99.90;;;;;;5054722;28;20605;-78
2022/09/23 05:38:16;;;;;;;0.50;0.40;;;11.30;99.90;;;;;;5054542;28;20717;-78
2022/09/23 05:40:43;;;;;;;0.50;0.40;;;11.30;99.90;;;;;;5054791;28;20202;-77
2022/09/23 05:43:10;;;;;;;0.50;0.40;;;11.30;99.90;;;;;;5054115;28;20310;-79
2022/09/23 05:45:37;;;;;;;0.50;0.40;;;11.30;99.90;;;;;;5053599;28;20218;-78
2022/09/23 05:48:04;;;;;;;0.82;0.70;;;11.40;99.90;;;;;;5054121;28;20208;-78
2022/09/23 05:50:33;;;;;;;0.50;0.40;;;11.40;99.90;;;;;;5054284;28;20197;-79
2022/09/23 05:52:59;;;;;;;0.50;0.40;;;11.40;99.90;;;;;;5053987;28;20221;-78
2022/09/23 05:55:27;;;;;;;0.50;0.40;;;11.50;99.90;;;;;;5053842;28;20727;-78
2022/09/23 05:57:54;;;;;;;0.50;0.40;;;11.50;99.90;;;;;;5054315;28;20220;-78
2022/09/23 06:00:21;;;;;;;0.50;0.40;;;11.60;99.90;;;;;;5054299;28;20284;-77
2022/09/23 06:02:48;;;;;;;0.60;0.50;;;11.70;99.90;;;;;;5054198;28;20583;-79
2022/09/23 06:05:16;;;;;;;0.50;0.40;;;11.70;99.90;;;;;;5053736;28;20218;-74
2022/09/23 06:07:44;;;;;;;0.50;0.40;;;11.90;99.90;;;;;;5054236;28;20586;-78
2022/09/23 06:10:11;;;;;;;0.50;0.40;;;11.90;99.90;;;;;;5054093;28;20289;-78
2022/09/23 06:12:38;;;;;;;0.52;0.52;;;11.90;99.90;;;;;;5053993;28;20221;-78
2022/09/23 06:15:06;;;;;;;0.50;0.40;;;12.00;99.90;;;;;;5053521;28;20286;-78
2022/09/23 06:17:33;;;;;;;0.50;0.40;;;12.20;99.90;;;;;;5053829;28;20680;-78
2022/09/23 06:20:00;;;;;;;2.10;2.00;;;12.20;99.90;;;;;;5054285;28;20199;-77
2022/09/23 06:22:27;;;;;;;0.50;0.40;;;12.30;99.90;;;;;;5053602;28;20287;-79
2022/09/23 06:24:55;;;;;;;0.50;0.40;;;12.40;99.90;;;;;;5053823;28;20516;-76
2022/09/23 06:27:22;;;;;;;0.50;0.40;;;12.50;99.90;;;;;;5053699;28;20262;-76
2022/09/23 06:29:51;;;;;;;0.50;0.40;;;12.70;99.90;;;;;;5053622;28;20205;-77
2022/09/23 06:32:18;;;;;;;0.60;0.60;;;12.90;99.90;;;;;;5048819;28;20466;-77
2022/09/23 06:34:45;;;;;;;0.50;0.40;;;13.10;99.90;;;;;;5037527;28;20202;-77
2022/09/23 06:37:12;;;;;;;0.50;0.50;;;13.50;99.90;;;;;;5033693;28;20697;-77
2022/09/23 06:39:39;;;;;;;0.50;0.40;;;14.40;99.90;;;;;;5032190;28;20203;-75
2022/09/23 06:42:07;;;;;;;0.50;0.40;;;15.20;99.90;;;;;;5033901;28;20540;-77
2022/09/23 06:44:34;;;;;;;0.50;0.40;;;15.60;99.90;;;;;;5033390;28;20468;-77
2022/09/23 06:47:01;;;;;;;0.50;0.40;;;15.90;99.90;;;;;;5033145;28;20529;-75
2022/09/23 06:49:28;;;;;;;1.00;0.63;;;16.20;99.90;;;;;;5033556;28;20470;-77
2022/09/23 06:51:55;;;;;;;0.80;0.63;;;16.60;99.90;;;;;;5033533;28;20478;-76
2022/09/23 06:54:22;;;;;;;0.50;0.30;;;16.90;99.90;;;;;;5033203;28;20469;-77
2022/09/23 06:56:49;;;;;;;0.50;0.40;;;17.30;99.90;;;;;;5033365;28;20492;-77
2022/09/23 06:59:17;;;;;;;0.50;0.40;;;17.70;99.90;;;;;;5035404;28;20885;-75
2022/09/23 07:01:46;;;;;;;0.60;0.40;;;18.10;99.90;;;;;;5033026;28;20851;-77
2022/09/23 07:04:13;;;;;;;1.23;1.23;;;18.20;99.90;;;;;;5032512;28;20497;-77
2022/09/23 07:06:40;;;;;;;0.50;0.40;;;18.20;99.90;;;;;;5033201;28;20966;-77
2022/09/23 07:09:09;;;;;;;0.50;0.40;;;18.20;99.90;;;;;;5033308;28;20500;-77
2022/09/23 07:11:36;;;;;;;0.50;0.40;;;18.00;99.90;;;;;;5032897;28;20963;-78
2022/09/23 07:14:03;;;;;;;1.43;0.60;;;17.90;99.90;;;;;;5032648;28;20465;-78
2022/09/23 07:16:32;;;;;;;0.50;0.40;;;17.60;99.90;;;;;;5038009;28;20465;-78
2022/09/23 07:18:59;;;;;;;0.50;0.40;;;17.20;99.90;;;;;;5046140;28;20441;-78
2022/09/23 07:21:26;;;;;;;0.50;0.40;;;17.20;99.90;;;;;;5052658;28;20445;-73
2022/09/23 07:23:54;;;;;;;0.50;0.40;;;17.20;99.90;;;;;;5052395;28;20947;-77
2022/09/23 07:26:21;;;;;;;0.50;0.40;;;17.10;99.90;;;;;;5047661;28;20980;-78
2022/09/23 07:28:53;;;;;;;0.50;0.40;;;17.20;99.90;;;;;;5051360;28;20438;-77
2022/09/23 07:31:19;;;;;;;0.50;0.40;;;17.30;99.90;;;;;;5052415;28;20795;-77
2022/09/23 07:33:47;;;;;;;0.50;0.40;;;17.40;99.90;;;;;;5051992;28;20989;-77
2022/09/23 07:36:17;;;;;;;0.50;0.40;;;17.30;99.90;;;;;;5051343;28;20524;-77
2022/09/23 07:38:45;;;;;;;0.50;0.40;;;17.20;99.90;;;;;;5052751;28;20467;-78
2022/09/23 07:41:13;;;;;;;0.50;0.40;;;17.10;99.90;;;;;;5052385;28;20441;-76
2022/09/23 07:43:40;;;;;;;0.50;0.40;;;17.30;99.90;;;;;;5053452;28;20863;-77
2022/09/23 07:46:10;;;;;;;0.50;0.40;;;17.60;99.90;;;;;;5051660;28;21093;-77
2022/09/23 07:48:38;;;;;;;1.23;1.23;;;17.80;99.90;;;;;;5052234;28;20946;-78
2022/09/23 07:51:11;;;;;;;0.50;0.40;;;17.80;99.90;;;;;;5051276;28;20854;-78
2022/09/23 07:53:38;;;;;;;0.50;0.40;;;17.90;99.90;;;;;;5051772;28;20986;-75
2022/09/23 07:56:05;;;;;;;0.67;0.67;;;18.20;99.90;;;;;;5051996;28;20441;-78
2022/09/23 07:58:33;;;;;;;0.93;0.50;;;18.40;99.90;;;;;;5052226;28;20520;-75
2022/09/23 08:01:07;;;;;;;0.50;0.30;;;18.10;99.90;;;;;;5052174;28;20438;-77
2022/09/23 08:03:35;;;;;;;0.50;0.40;;;17.70;99.90;;;;;;5051860;28;20460;-77
2022/09/23 08:06:09;;;;;;;0.50;0.40;;;17.20;99.90;;;;;;5051707;28;20469;-77
2022/09/23 08:08:39;;;;;;;0.50;0.40;;;17.30;99.90;;;;;;5051879;28;20416;-76
2022/09/23 08:11:08;;;;;;;2.70;0.60;;;17.20;99.90;;;;;;5051908;28;20532;-78
2022/09/23 08:13:35;;;;;;;0.80;0.80;;;17.10;99.90;;;;;;5051303;28;20516;-77
2022/09/23 08:16:03;;;;;;;1.27;1.17;;;17.10;99.90;;;;;;5050957;28;20460;-77
2022/09/23 08:18:30;;;;;;;0.50;0.30;;;17.40;99.90;;;;;;5051465;28;20445;-76
2022/09/23 08:20:57;;;;;;;0.50;0.30;;;17.50;99.90;;;;;;5051369;28;20441;-77
2022/09/23 08:23:23;;;;;;;0.50;0.40;;;17.40;99.90;;;;;;5051021;28;20560;-77
2022/09/23 08:25:58;;;;;;;0.50;0.30;;;17.10;99.90;;;;;;5051536;28;20477;-77
2022/09/23 08:28:25;;;;;;;0.50;0.30;;;17.00;99.90;;;;;;5051851;28;20853;-78
2022/09/23 08:30:53;;;;;;;0.50;0.30;;;17.10;99.90;;;;;;5051771;28;20954;-78
2022/09/23 08:33:20;;;;;;;0.50;0.40;;;17.40;99.90;;;;;;5050845;28;20456;-77
2022/09/23 08:35:46;;;;;;;0.50;0.30;;;17.60;99.90;;;;;;5051328;28;20441;-77
2022/09/23 08:38:13;;;;;;;0.50;0.30;;;17.80;99.90;;;;;;5051407;28;20448;-78
2022/09/23 08:40:44;;;;;;;0.50;0.40;;;18.20;99.90;;;;;;5051177;28;20524;-77
2022/09/23 08:43:20;;;;;;;0.50;0.40;;;18.40;99.90;;;;;;5051016;28;20530;-77
2022/09/23 08:45:49;;;;;;;0.70;0.40;;;18.60;99.90;;;;;;5050970;28;21049;-78
2022/09/23 08:48:19;;;;;;;0.50;0.40;;;19.00;99.90;;;;;;5051159;28;20548;-77
2022/09/23 08:50:50;;;;;;;0.50;0.30;;;19.20;99.90;;;;;;5051708;28;20421;-78
2022/09/23 08:53:25;;;;;;;0.50;0.30;;;19.20;99.90;;;;;;5050805;28;20618;-78
2022/09/23 08:55:54;;;;;;;0.50;0.40;;;19.30;99.90;;;;;;5051144;28;20432;-78
2022/09/23 08:58:34;;;;;;;0.50;0.30;;;19.30;99.90;;;;;;5051315;28;20873;-73
2022/09/23 09:01:12;;;;;;;0.50;0.30;;;19.10;99.90;;;;;;5050782;28;20425;-78
2022/09/23 09:03:45;;;;;;;0.50;0.40;;;19.00;99.90;;;;;;5057215;28;20552;-79
2022/09/23 09:06:18;;;;;;;0.60;0.40;;;18.80;99.90;;;;;;5057588;28;20468;-78
2022/09/23 09:08:51;;;;;;;0.50;0.30;;;18.70;99.90;;;;;;5057716;28;20499;-79
2022/09/23 09:11:19;;;;;;;0.50;0.40;;;18.60;99.90;;;;;;5058033;28;20776;-78
2022/09/23 09:13:55;;;;;;;0.50;0.30;;;18.60;99.90;;;;;;5057825;28;20457;-79
2022/09/23 09:16:38;;;;;;;0.50;0.40;;;18.80;99.90;;;;;;5057507;28;20902;-78
2022/09/23 09:19:15;;;;;;;0.50;0.30;;;19.10;99.90;;;;;;5057887;28;20471;-78
2022/09/23 09:21:46;;;;;;;0.50;0.30;;;19.40;99.90;;;;;;5057499;28;20459;-78
2022/09/23 09:24:19;;;;;;;0.70;0.53;;;19.60;99.90;;;;;;5054081;28;20807;-78
2022/09/23 09:26:46;;;;;;;1.47;0.93;;;19.60;98.90;;;;;;5047887;28;20480;-78
2022/09/23 09:29:19;;;;;;;1.90;0.70;;;19.30;96.10;;;;;;5058015;28;20437;-77
2022/09/23 09:31:47;;;;;;;0.50;0.37;;;18.90;97.40;;;;;;5057285;28;20546;-75
2022/09/23 09:34:26;;;;;;;0.60;0.40;;;19.50;99.90;;;;;;5057098;28;20812;-76
2022/09/23 09:37:04;;;;;;;0.50;0.40;;;20.40;94.50;;;;;;5057284;28;20540;-78
2022/09/23 09:39:31;;;;;;;0.90;0.70;;;21.20;90.80;;;;;;5057572;28;20429;-77
2022/09/23 09:41:58;;;;;;;0.50;0.40;;;21.40;85.20;;;;;;5058016;28;20473;-77
2022/09/23 09:44:33;;;;;;;1.20;1.03;;;20.80;83.20;;;;;;5059291;28;20856;-77
2022/09/23 09:47:16;;;;;;;0.50;0.30;;;20.90;83.30;;;;;;5059193;28;21066;-77
2022/09/23 09:49:48;;;;;;;1.40;1.40;;;20.70;83.20;;;;;;5058701;28;20852;-78
2022/09/23 09:52:22;;;;;;;0.50;0.40;;;20.10;82.20;;;;;;5058872;28;20895;-75
2022/09/23 09:54:49;;;;;;;0.50;0.40;;;19.90;84.90;;;;;;5058697;28;20444;-77
2022/09/23 09:57:26;;;;;;;0.50;0.30;;;19.90;90.80;;;;;;5058662;28;20463;-78
2022/09/23 09:59:54;;;;;;;0.60;0.40;;;20.30;87.40;;;;;;5059115;28;20443;-78
2022/09/23 10:02:28;;;;;;;1.40;1.10;;;20.60;86.10;;;;;;5059408;28;20441;-77
2022/09/23 10:04:58;;;;;;;1.33;1.23;;;20.40;82.70;;;;;;5058725;28;20451;-78
2022/09/23 10:07:28;;;;;;;0.60;0.40;;;20.20;82.60;;;;;;5058980;28;20480;-77
2022/09/23 10:09:54;;;;;;;0.80;0.80;;;20.00;83.50;;;;;;5059291;28;20452;-77
2022/09/23 10:12:23;;;;;;;0.50;0.30;;;20.10;86.20;;;;;;5059842;28;20451;-76
2022/09/23 10:14:52;;;;;;;2.97;1.17;;;20.90;89.50;;;;;;5055542;28;20445;-78
2022/09/23 10:17:23;;;;;;;0.50;0.30;;;21.40;81.90;;;;;;5054127;28;20437;-76
2022/09/23 10:19:59;;;;;;;0.60;0.50;;;21.70;84.40;;;;;;5054864;28;20476;-79
2022/09/23 10:22:29;;;;;;;0.50;0.33;;;21.90;84.00;;;;;;5055332;28;20451;-77
2022/09/23 10:25:02;;;;;;;0.87;0.60;;;22.60;81.10;;;;;;5054436;28;20430;-79
2022/09/23 10:27:31;;;;;;;0.50;0.40;;;22.60;76.80;;;;;;5055333;28;20461;-79
2022/09/23 10:30:01;;;;;;;0.50;0.30;;;22.70;76.70;;;;;;5055174;28;21031;-76
2022/09/23 10:32:32;;;;;;;0.50;0.30;;;22.70;75.00;;;;;;5055099;28;20449;-77
2022/09/23 10:35:12;;;;;;;2.10;0.70;;;22.50;78.80;;;;;;5055534;28;20514;-78
2022/09/23 10:37:40;;;;;;;0.50;0.40;;;22.30;74.50;;;;;;5056785;28;20440;-78
2022/09/23 10:49:24;;;;;;;0.60;0.60;;;22.50;78.70;;;;;;5055613;28;20985;-76
2022/09/23 10:52:04;;;;;;;0.63;0.60;;;22.60;78.70;;;;;;5055216;28;20866;-77
2022/09/23 10:54:39;;;;;;;0.50;0.40;;;23.00;71.90;;;;;;5054981;28;20465;-76
2022/09/23 11:00:04;;;;;;;0.70;0.50;;;22.60;77.40;;;;;;5054829;28;20420;-76
2022/09/23 11:02:48;;;;;;;0.50;0.30;;;22.30;73.70;;;;;;5081135;22;20480;-75
2022/09/23 11:05:38;;;;;;;0.50;0.30;;;22.40;74.40;;;;;;5050427;28;20477;-77
2022/09/23 11:08:26;;;;;;;0.50;0.40;;;23.00;76.90;;;;;;5033570;28;20959;-78
2022/09/23 11:11:10;;;;;;;0.50;0.30;;;22.90;73.40;;;;;;5032979;28;20434;-77
2022/09/23 11:13:57;;;;;;;0.50;0.30;;;23.10;78.20;;;;;;5033254;28;20458;-77
2022/09/23 11:16:36;;;;;;;0.50;0.30;;;23.50;74.70;;;;;;5033189;28;20484;-78
2022/09/23 11:19:31;;;;;;;0.60;0.50;;;23.80;71.90;;;;;;5034084;28;20509;-75
2022/09/23 11:22:14;;;;;;;0.60;0.50;;;23.10;69.20;;;;;;5034205;28;20544;-75
2022/09/23 11:24:57;;;;;;;0.60;0.40;;;22.90;71.10;;;;;;5033308;28;20466;-78
2022/09/23 11:27:36;;;;;;;0.73;0.73;;;22.30;70.20;;;;;;5033639;28;20493;-77
2022/09/23 11:30:08;;;;;;;0.67;0.67;;;22.30;71.60;;;;;;5033239;28;20430;-76
2022/09/23 11:33:07;;;;;;;0.50;0.30;;;22.30;71.90;;;;;;5032549;28;20438;-78
2022/09/23 11:35:40;;;;;;;0.50;0.40;;;22.50;72.20;;;;;;5021208;28;20899;-77
2022/09/23 11:38:12;;;;;;;0.50;0.30;;;22.80;73.20;;;;;;5033469;28;20422;-77
2022/09/23 11:40:41;;;;;;;3.70;2.83;;;23.30;70.70;;;;;;5033045;28;20449;-77
2022/09/23 11:43:18;;;;;;;0.50;0.30;;;23.20;70.80;;;;;;5032434;28;20457;-77
2022/09/23 11:45:54;;;;;;;0.50;0.30;;;23.60;71.20;;;;;;5033074;28;20449;-77
2022/09/23 11:48:27;;;;;;;0.50;0.40;;;24.10;72.20;;;;;;5033368;28;20486;-78
2022/09/23 11:50:58;;;;;;;0.50;0.30;;;24.70;68.60;;;;;;5033333;28;20431;-78
2022/09/23 11:53:34;;;;;;;0.50;0.30;;;25.20;67.70;;;;;;5034513;28;20488;-74
2022/09/23 11:56:06;;;;;;;0.50;0.30;;;25.50;66.90;;;;;;5032993;28;20521;-79
2022/09/23 11:58:37;;;;;;;0.50;0.37;;;25.40;64.60;;;;;;5033664;28;20835;-74
2022/09/23 12:01:09;;;;;;;5.03;4.73;;;25.00;65.80;;;;;;5033359;28;20437;-77
2022/09/23 12:03:45;;;;;;;0.50;0.40;;;24.60;65.40;;;;;;5033027;28;20577;-77
2022/09/23 12:06:17;;;;;;;0.90;0.40;;;24.80;67.00;;;;;;5033094;28;20437;-76
2022/09/23 12:08:45;;;;;;;0.50;0.30;;;24.90;65.30;;;;;;5033465;28;20526;-77
2022/09/23 12:11:24;;;;;;;0.80;0.50;;;24.00;64.40;;;;;;5033638;28;20535;-79
2022/09/23 12:13:56;;;;;;;0.50;0.33;;;24.40;66.80;;;;;;5033403;28;20464;-76
2022/09/23 12:16:54;;;;;;;0.50;0.40;;;24.40;66.80;;;;;;5032523;28;20506;-78
2022/09/23 12:19:39;;;;;;;2.20;1.67;;;24.60;66.30;;;;;;5033210;28;20437;-77
2022/09/23 12:22:23;;;;;;;0.60;0.60;;;24.30;63.70;;;;;;5032934;28;20430;-77
2022/09/23 12:28:17;;;;;;;0.50;0.40;;;24.10;63.80;;;;;;5070822;28;20834;-78
2022/09/23 12:30:45;;;;;;;1.80;1.27;;;24.30;64.30;;;;;;5072689;28;20528;-76
2022/09/23 12:33:23;;;;;;;0.50;0.30;;;24.10;63.90;;;;;;5072382;28;20461;-78
2022/09/23 12:35:53;;;;;;;0.50;0.30;;;24.00;64.90;;;;;;5072552;28;20420;-78
2022/09/23 12:38:23;;;;;;;0.50;0.30;;;24.10;64.80;;;;;;5072110;28;20447;-77
2022/09/23 12:40:51;;;;;;;0.50;0.30;;;24.10;66.60;;;;;;5072284;28;20833;-78
2022/09/23 12:43:29;;;;;;;0.70;0.70;;;23.90;66.00;;;;;;5071213;28;20514;-78
2022/09/23 12:46:17;;;;;;;0.70;0.70;;;23.50;69.00;;;;;;5071053;28;20436;-78
2022/09/23 12:48:59;;;;;;;0.50;0.30;;;23.30;69.70;;;;;;5070933;28;20475;-77
2022/09/23 12:51:27;;;;;;;1.00;1.00;;;23.10;68.20;;;;;;5071340;28;20509;-76
2022/09/23 12:54:26;;;;;;;0.50;0.40;;;22.60;65.90;;;;;;5072589;28;20492;-78
2022/09/23 12:57:01;;;;;;;0.50;0.40;;;22.10;67.90;;;;;;5074222;28;20460;-79
2022/09/23 12:59:31;;;;;;;0.50;0.30;;;22.00;70.20;;;;;;5075106;28;20431;-76
2022/09/23 13:02:21;;;;;;;0.50;0.40;;;21.70;76.40;;;;;;5071413;28;20442;-76
2022/09/23 13:07:46;;;;;;;0.50;0.30;;;21.30;70.70;;;;;;5073007;28;20459;-79
2022/09/23 13:10:18;;;;;;;0.50;0.30;;;21.20;69.10;;;;;;5073498;28;20425;-78
2022/09/23 13:12:46;;;;;;;0.50;0.40;;;21.20;69.00;;;;;;5073426;28;20539;-78
2022/09/23 13:15:24;;;;;;;0.50;0.50;;;21.00;71.60;;;;;;5071701;28;20817;-78
2022/09/23 13:17:50;;;;;;;0.60;0.60;;;20.70;70.40;;;;;;5072022;28;20435;-78
2022/09/23 13:20:37;;;;;;;0.50;0.40;;;20.50;71.00;;;;;;5070984;28;20448;-78
2022/09/23 13:23:17;;;;;;;0.50;0.30;;;20.30;72.00;;;;;;5073270;28;20548;-79
2022/09/23 13:25:44;;;;;;;0.50;0.30;;;20.10;75.20;;;;;;5071525;28;20479;-78
2022/09/23 13:28:25;;;;;;;0.50;0.30;;;20.10;74.10;;;;;;5071277;28;20514;-75
2022/09/23 13:30:54;;;;;;;0.50;0.30;;;20.10;74.00;;;;;;5069972;28;20527;-76